Gunnison, CO

1:49 PM MDT on August 27, 2015 (GMT -0600)
Taylor St. | | Change Station
CLOSE
Current Station
Personal Weather Station
Location: Gunnison, CO
Elevation: 7687 ft
Nearby Weather Stations

Elev 7687 ft 38.54 °N, 106.92 °W | Updated 4 minutes ago

Overcast
Overcast
65.8 °F
Feels Like 65.8 °F
N
5.3
Wind Variable Wind from WNW

Today
High -- | Low -- °F
--% Chance of Precip.
Yesterday
High -- | Low -- °F
Precip. -- in
6:32 AM 7:45 PM
Waxing Gibbous, 94% visible
Pressure 30.42 in
Visibility 10.0 miles
Clouds Few 5000 ft
Mostly Cloudy 7000 ft
Overcast 8500 ft
Dew Point 65 °F
Humidity 98%
Rainfall 0.09 in
Snow Depth Not available.
UV 3 out of 12
Pollen 6.40 out of 12
Air Quality Not available.
Flu Activity Not available.
METAR KGUC 271935Z AUTO 22009KT 10SM FEW050 BKN070 OVC085 18/10 A3042 RMK AO1
Pressure 30.42 in
Visibility 10.0 miles
Clouds Few 5000 ft
Mostly Cloudy 7000 ft
Overcast 8500 ft
Dew Point 65 °F
Humidity 98%
Rainfall 0.09 in
Snow Depth Not available.
UV 3 out of 12
Pollen 6.40 out of 12
Air Quality Not available.
Flu Activity Not available.
METAR KGUC 271935Z AUTO 22009KT 10SM FEW050 BKN070 OVC085 18/10 A3042 RMK AO1

10-Day Weather Forecast

×

Almanac

Astronomy

Aug. 27, 2015 Rise Set
Actual Time
Civil Twilight
Nautical Twilight
Astronomical Twilight
Moon
Length of Visible Light
Length of Day
Tomorrow will be .
, % of the Moon is Illuminated

Today's Extremes

State Highs State Lows

Community

WunderPhotos

Upload Photos

1,850,200 photos uploaded!

WunderBlogs® & News

Nearby

Air Quality

  Air Quality AQ Index Pollutant
Not available.

Snow Depth

Station Depth Elevation

Earthquake Activity

City Distance Mag. Time & Date
Minimum magnitude displayed is 2.5.

Coastal Water Temperatures

Place Temperature

Stations

Nearby Weather Stations

Station Location Temp. Windchill Dew Point Humidity Wind Precip. Elev Updated Type